createdAt,value
2023-03-24T00:00:22.268Z,4.80
2023-03-24T00:01:22.242Z,5.70
2023-03-24T00:02:22.277Z,5.00
2023-03-24T00:03:22.356Z,5.60
2023-03-24T00:04:22.248Z,5.10
2023-03-24T00:05:22.230Z,4.30
2023-03-24T00:06:22.182Z,3.90
2023-03-24T00:07:22.184Z,4.50
2023-03-24T00:08:22.175Z,6.10
2023-03-24T00:09:22.150Z,4.50
2023-03-24T00:10:22.157Z,4.40
2023-03-24T00:11:22.161Z,4.00
2023-03-24T00:12:22.125Z,4.50
2023-03-24T00:13:22.113Z,7.60
2023-03-24T00:14:22.140Z,6.50
2023-03-24T00:15:22.110Z,5.70
2023-03-24T00:16:22.325Z,5.20
2023-03-24T00:17:22.083Z,4.80
2023-03-24T00:18:22.066Z,4.80
2023-03-24T00:19:22.090Z,5.10
2023-03-24T00:20:32.579Z,5.50
2023-03-24T00:21:21.989Z,5.30
2023-03-24T00:22:22.048Z,5.00
2023-03-24T00:23:22.001Z,4.40
2023-03-24T00:24:22.001Z,5.40
2023-03-24T00:25:21.945Z,5.30
2023-03-24T00:26:21.979Z,4.70
2023-03-24T00:27:21.964Z,5.80
2023-03-24T00:28:21.952Z,5.10
2023-03-24T00:29:21.972Z,4.70
2023-03-24T00:30:21.903Z,5.10
2023-03-24T00:31:21.991Z,6.30
2023-03-24T00:32:21.871Z,5.80
2023-03-24T00:33:21.872Z,6.80
2023-03-24T00:34:21.922Z,5.00
2023-03-24T00:35:21.915Z,5.60
2023-03-24T00:36:21.886Z,5.30
2023-03-24T00:37:21.861Z,5.20
2023-03-24T00:38:21.871Z,4.80
2023-03-24T00:39:21.842Z,4.80
2023-03-24T00:40:21.845Z,4.70
2023-03-24T00:41:21.810Z,5.10
2023-03-24T00:42:21.828Z,5.50
2023-03-24T00:43:21.788Z,4.90
2023-03-24T00:44:21.750Z,5.10
2023-03-24T00:45:21.754Z,5.20
2023-03-24T00:46:21.825Z,5.30
2023-03-24T00:47:21.759Z,4.40
2023-03-24T00:48:21.804Z,7.40
2023-03-24T00:49:21.737Z,6.60
2023-03-24T00:50:21.736Z,5.80
2023-03-24T00:51:21.722Z,5.30
2023-03-24T00:52:21.757Z,5.50
2023-03-24T00:53:21.707Z,5.00
2023-03-24T00:54:21.692Z,5.40
2023-03-24T00:55:21.821Z,5.80
2023-03-24T00:56:21.675Z,4.80
2023-03-24T00:57:21.736Z,6.00
2023-03-24T00:58:21.641Z,4.60
2023-03-24T00:59:21.684Z,4.70
2023-03-24T01:00:21.627Z,6.80
2023-03-24T01:01:21.640Z,4.40
2023-03-24T01:02:21.673Z,5.00
2023-03-24T01:03:21.586Z,5.70
2023-03-24T01:04:21.558Z,5.60
2023-03-24T01:05:21.582Z,5.90
2023-03-24T01:06:21.562Z,5.60
2023-03-24T01:07:21.555Z,6.10
2023-03-24T01:08:21.572Z,4.90
2023-03-24T01:09:21.530Z,6.30
2023-03-24T01:10:21.559Z,6.70
2023-03-24T01:11:21.509Z,4.80
2023-03-24T01:12:21.495Z,5.30
2023-03-24T01:13:21.494Z,4.60
2023-03-24T01:14:21.483Z,4.40
2023-03-24T01:15:21.475Z,4.80
2023-03-24T01:16:21.479Z,4.60
2023-03-24T01:17:21.461Z,4.90
2023-03-24T01:18:21.477Z,4.90
2023-03-24T01:19:21.432Z,6.10
2023-03-24T01:20:21.395Z,6.50
2023-03-24T01:21:21.423Z,5.20
2023-03-24T01:22:21.437Z,5.40
2023-03-24T01:23:21.429Z,5.90
2023-03-24T01:24:21.353Z,5.60
2023-03-24T01:25:21.392Z,5.50
2023-03-24T01:26:21.352Z,5.20
2023-03-24T01:27:21.388Z,4.90
2023-03-24T01:28:21.373Z,5.30
2023-03-24T01:29:21.320Z,5.40
2023-03-24T01:30:21.359Z,5.20
2023-03-24T01:31:21.346Z,5.20
2023-03-24T01:32:21.317Z,5.30
2023-03-24T01:33:21.314Z,5.80
2023-03-24T01:34:22.268Z,5.70
2023-03-24T01:35:21.275Z,7.60
2023-03-24T01:36:21.288Z,6.90
2023-03-24T01:37:21.233Z,5.90
2023-03-24T01:38:21.271Z,6.00
2023-03-24T01:39:21.261Z,5.40
2023-03-24T01:40:21.222Z,5.00
2023-03-24T01:41:21.247Z,5.10
2023-03-24T01:42:21.212Z,5.00
2023-03-24T01:43:21.184Z,5.90
2023-03-24T01:44:21.179Z,4.90
2023-03-24T01:45:21.228Z,4.70
2023-03-24T01:46:21.273Z,6.20
2023-03-24T01:47:21.156Z,5.20
2023-03-24T01:48:21.152Z,5.40
2023-03-24T01:49:21.139Z,4.10
2023-03-24T01:50:21.134Z,4.90
2023-03-24T01:51:21.136Z,5.20
2023-03-24T01:52:21.186Z,6.60
2023-03-24T01:53:21.112Z,6.20
2023-03-24T01:54:21.099Z,5.20
2023-03-24T01:55:21.061Z,5.20
2023-03-24T01:56:21.048Z,5.00
2023-03-24T01:57:22.058Z,5.90
2023-03-24T01:58:21.077Z,5.50
2023-03-24T01:59:21.034Z,5.70
2023-03-24T02:00:21.040Z,4.70
2023-03-24T02:01:52.932Z,6.00
2023-03-24T02:02:21.032Z,5.70
2023-03-24T02:03:21.070Z,5.30
2023-03-24T02:04:21.030Z,5.00
2023-03-24T02:05:20.999Z,4.80
2023-03-24T02:06:20.958Z,4.20
2023-03-24T02:07:21.037Z,5.00
2023-03-24T02:08:20.942Z,4.30
2023-03-24T02:09:20.988Z,4.60
2023-03-24T02:10:20.949Z,6.40
2023-03-24T02:11:20.924Z,5.20
2023-03-24T02:12:20.908Z,4.70
2023-03-24T02:13:20.894Z,4.30
2023-03-24T02:14:20.918Z,4.50
2023-03-24T02:15:20.880Z,5.90
2023-03-24T02:16:20.902Z,4.50
2023-03-24T02:17:20.846Z,5.70
2023-03-24T02:18:20.863Z,4.70
2023-03-24T02:19:21.618Z,5.00
2023-03-24T02:20:20.831Z,5.90
2023-03-24T02:21:20.816Z,4.60
2023-03-24T02:22:20.798Z,4.90
2023-03-24T02:23:20.817Z,4.70
2023-03-24T02:24:20.810Z,4.70
2023-03-24T02:25:20.777Z,5.00
2023-03-24T02:26:20.775Z,5.10
2023-03-24T02:27:20.746Z,6.00
2023-03-24T02:28:20.726Z,4.60
2023-03-24T02:29:20.796Z,4.40
2023-03-24T02:30:20.710Z,4.30
2023-03-24T02:31:20.788Z,4.70
2023-03-24T02:32:20.710Z,5.40
2023-03-24T02:33:20.720Z,4.50
2023-03-24T02:34:20.691Z,5.30
2023-03-24T02:35:20.755Z,4.40
2023-03-24T02:36:20.720Z,6.40
2023-03-24T02:37:20.670Z,4.90
2023-03-24T02:38:20.698Z,7.40
2023-03-24T02:39:20.644Z,6.30
2023-03-24T02:40:20.623Z,5.00
2023-03-24T02:41:20.630Z,9.50
2023-03-24T02:42:20.635Z,5.10
2023-03-24T02:43:20.629Z,5.80
2023-03-24T02:44:20.576Z,3.80
2023-03-24T02:45:20.593Z,4.20
2023-03-24T02:46:20.586Z,5.50
2023-03-24T02:47:20.606Z,4.20
2023-03-24T02:48:20.622Z,7.30
2023-03-24T02:49:20.518Z,4.70
2023-03-24T02:50:20.585Z,4.60
2023-03-24T02:51:20.529Z,4.10
2023-03-24T02:52:20.511Z,4.30
2023-03-24T02:53:20.515Z,4.90
2023-03-24T02:54:20.493Z,4.30
2023-03-24T02:55:20.489Z,4.40
2023-03-24T02:56:20.496Z,4.30
2023-03-24T02:57:20.507Z,4.60
2023-03-24T02:58:20.458Z,5.50
2023-03-24T02:59:20.432Z,5.70
2023-03-24T03:00:20.547Z,4.10
2023-03-24T03:01:20.439Z,4.50
2023-03-24T03:02:20.496Z,4.60
2023-03-24T03:03:20.460Z,5.50
2023-03-24T03:04:20.435Z,4.30
2023-03-24T03:05:20.386Z,3.80
2023-03-24T03:06:20.416Z,5.80
2023-03-24T03:07:20.441Z,4.50
2023-03-24T03:08:20.341Z,3.30
2023-03-24T03:09:20.396Z,4.80
2023-03-24T03:10:20.336Z,3.40
2023-03-24T03:11:20.395Z,4.50
2023-03-24T03:12:20.321Z,3.80
2023-03-24T03:13:20.293Z,3.70
2023-03-24T03:14:20.283Z,5.40
2023-03-24T03:15:20.332Z,3.70
2023-03-24T03:16:20.380Z,5.40
2023-03-24T03:17:20.289Z,4.60
2023-03-24T03:18:20.254Z,4.00
2023-03-24T03:19:20.247Z,4.20
2023-03-24T03:20:20.330Z,3.80
2023-03-24T03:21:20.223Z,5.00
2023-03-24T03:22:20.218Z,4.10
2023-03-24T03:23:20.216Z,3.60
2023-03-24T03:24:20.223Z,3.60
2023-03-24T03:25:20.185Z,4.20
2023-03-24T03:26:20.185Z,3.30
2023-03-24T03:27:20.177Z,3.30
2023-03-24T03:28:20.146Z,4.00
2023-03-24T03:29:20.165Z,3.10
2023-03-24T03:30:20.150Z,3.90
2023-03-24T03:31:20.177Z,5.10
2023-03-24T03:32:20.097Z,4.90
2023-03-24T03:33:20.110Z,4.00
2023-03-24T03:34:20.087Z,5.00
2023-03-24T03:35:20.110Z,4.60
2023-03-24T03:36:20.073Z,4.10
2023-03-24T03:37:20.080Z,3.40
2023-03-24T03:38:20.073Z,4.10
2023-03-24T03:39:20.101Z,4.40
2023-03-24T03:40:20.055Z,5.00
2023-03-24T03:41:20.035Z,4.20
2023-03-24T03:42:20.050Z,3.10
2023-03-24T03:43:20.017Z,3.30
2023-03-24T03:44:19.990Z,3.90
2023-03-24T03:45:20.001Z,3.80
2023-03-24T03:46:20.069Z,3.70
2023-03-24T03:47:20.056Z,4.20
2023-03-24T03:48:19.984Z,3.30
2023-03-24T03:49:19.950Z,4.50
2023-03-24T03:50:19.962Z,4.10
2023-03-24T03:51:19.953Z,4.80
2023-03-24T03:52:19.948Z,3.90
2023-03-24T03:53:19.974Z,4.80
2023-03-24T03:54:19.894Z,4.10
2023-03-24T03:55:19.966Z,5.80
2023-03-24T03:56:19.897Z,3.40
2023-03-24T03:57:19.900Z,4.90
2023-03-24T03:58:19.898Z,3.70
2023-03-24T03:59:19.865Z,5.90
2023-03-24T04:00:19.865Z,4.10
2023-03-24T04:01:19.858Z,3.20
2023-03-24T04:02:19.834Z,3.50
2023-03-24T04:03:19.931Z,3.80
2023-03-24T04:04:19.854Z,3.60
2023-03-24T04:05:19.852Z,5.20
2023-03-24T04:06:19.833Z,3.40
2023-03-24T04:07:19.819Z,3.20
2023-03-24T04:08:19.833Z,4.70
2023-03-24T04:09:19.779Z,3.90
2023-03-24T04:10:19.728Z,4.30
2023-03-24T04:11:19.760Z,3.30
2023-03-24T04:12:19.699Z,3.90
2023-03-24T04:13:19.703Z,3.70
2023-03-24T04:14:19.713Z,3.60
2023-03-24T04:15:19.681Z,5.50
2023-03-24T04:16:19.721Z,3.60
2023-03-24T04:17:19.697Z,6.20
2023-03-24T04:18:19.664Z,3.90
2023-03-24T04:19:19.670Z,4.70
2023-03-24T04:20:19.642Z,4.00
2023-03-24T04:21:19.665Z,3.10
2023-03-24T04:22:19.634Z,3.80
2023-03-24T04:23:19.627Z,3.70
2023-03-24T04:24:19.611Z,5.40
2023-03-24T04:25:19.633Z,4.10
2023-03-24T04:26:19.568Z,3.60
2023-03-24T04:27:19.642Z,5.10
2023-03-24T04:28:19.566Z,4.70
2023-03-24T04:29:19.583Z,4.30
2023-03-24T04:30:19.584Z,3.30
2023-03-24T04:31:19.589Z,3.20
2023-03-24T04:32:19.515Z,4.30
2023-03-24T04:33:20.535Z,3.90
2023-03-24T04:34:19.524Z,4.00
2023-03-24T04:35:19.515Z,4.10
2023-03-24T04:36:19.510Z,4.00
2023-03-24T04:37:19.471Z,6.40
2023-03-24T04:38:19.501Z,3.00
2023-03-24T04:39:19.451Z,4.70
2023-03-24T04:40:19.473Z,3.90
2023-03-24T04:41:19.466Z,4.50
2023-03-24T04:42:19.430Z,4.10
2023-03-24T04:43:19.405Z,3.20
2023-03-24T04:44:19.461Z,4.20
2023-03-24T04:45:19.412Z,3.70
2023-03-24T04:46:19.451Z,3.20
2023-03-24T04:47:19.378Z,3.50
2023-03-24T04:48:19.381Z,4.10
2023-03-24T04:49:19.422Z,3.50
2023-03-24T04:50:19.325Z,3.80
2023-03-24T04:51:19.344Z,3.30
2023-03-24T04:52:19.367Z,4.00
2023-03-24T04:53:19.298Z,5.50
2023-03-24T04:54:19.338Z,4.70
2023-03-24T04:55:19.281Z,4.40
2023-03-24T04:56:19.289Z,4.00
2023-03-24T04:57:19.285Z,4.40
2023-03-24T04:58:19.263Z,4.60
2023-03-24T04:59:19.297Z,5.50
2023-03-24T05:00:19.234Z,5.70
2023-03-24T05:01:19.263Z,5.00
2023-03-24T05:02:21.581Z,4.40
2023-03-24T05:03:19.252Z,4.80
2023-03-24T05:04:20.266Z,4.10
2023-03-24T05:05:19.182Z,4.10
2023-03-24T05:06:19.208Z,5.70
2023-03-24T05:07:19.171Z,4.60
2023-03-24T05:08:19.182Z,4.60
2023-03-24T05:09:19.189Z,5.80
2023-03-24T05:10:21.755Z,4.10
2023-03-24T05:11:19.160Z,4.60
2023-03-24T05:12:19.122Z,4.50
2023-03-24T05:13:19.179Z,5.10
2023-03-24T05:14:20.124Z,4.30
2023-03-24T05:15:19.081Z,4.60
2023-03-24T05:16:19.130Z,4.70
2023-03-24T05:17:19.079Z,5.00
2023-03-24T05:18:19.101Z,5.10
2023-03-24T05:19:19.062Z,4.60
2023-03-24T05:20:19.038Z,5.20
2023-03-24T05:21:19.070Z,6.00
2023-03-24T05:22:19.012Z,6.10
2023-03-24T05:23:19.011Z,5.40
2023-03-24T05:24:19.023Z,6.20
2023-03-24T05:25:18.988Z,4.90
2023-03-24T05:26:18.993Z,5.30
2023-03-24T05:27:19.004Z,6.20
2023-03-24T05:28:18.985Z,5.40
2023-03-24T05:29:18.946Z,6.80
2023-03-24T05:30:18.957Z,5.30
2023-03-24T05:31:18.971Z,7.70
2023-03-24T05:32:18.933Z,4.30
2023-03-24T05:33:18.930Z,5.40
2023-03-24T05:34:18.930Z,5.80
2023-03-24T05:35:19.952Z,6.30
2023-03-24T05:36:18.954Z,7.00
2023-03-24T05:37:18.881Z,4.70
2023-03-24T05:38:18.915Z,5.30
2023-03-24T05:39:18.842Z,5.50
2023-03-24T05:40:18.924Z,7.70
2023-03-24T05:41:18.841Z,6.60
2023-03-24T05:42:18.866Z,6.40
2023-03-24T05:43:18.825Z,6.20
2023-03-24T05:44:18.839Z,5.60
2023-03-24T05:45:18.822Z,5.10
2023-03-24T05:46:18.853Z,5.30
2023-03-24T05:47:18.781Z,4.90
2023-03-24T05:48:18.791Z,5.40
2023-03-24T05:49:18.784Z,4.50
2023-03-24T05:50:18.749Z,5.30
2023-03-24T05:51:18.776Z,5.40
2023-03-24T05:52:18.728Z,3.60
2023-03-24T05:53:18.727Z,4.30
2023-03-24T05:54:18.732Z,5.40
2023-03-24T05:55:18.714Z,5.10
2023-03-24T05:56:18.676Z,5.00
2023-03-24T05:57:18.672Z,6.40
2023-03-24T05:58:18.643Z,5.20
2023-03-24T05:59:18.689Z,5.30
2023-03-24T06:00:18.657Z,5.60
2023-03-24T06:01:18.639Z,4.90
2023-03-24T06:02:18.665Z,5.00
2023-03-24T06:03:18.783Z,5.10
2023-03-24T06:04:18.620Z,5.90
2023-03-24T06:05:18.591Z,5.30
2023-03-24T06:06:18.651Z,7.20
2023-03-24T06:07:18.574Z,4.90
2023-03-24T06:08:18.604Z,5.50
2023-03-24T06:09:18.568Z,6.10
2023-03-24T06:10:18.564Z,4.80
2023-03-24T06:11:18.557Z,5.60
2023-03-24T06:12:18.538Z,5.70
2023-03-24T06:13:18.525Z,6.00
2023-03-24T06:14:18.524Z,5.70
2023-03-24T06:15:18.507Z,4.70
2023-03-24T06:16:18.494Z,4.60
2023-03-24T06:17:18.503Z,5.60
2023-03-24T06:18:18.534Z,7.00
2023-03-24T06:19:18.471Z,6.10
2023-03-24T06:20:18.436Z,5.30
2023-03-24T06:21:18.437Z,5.40
2023-03-24T06:22:18.533Z,5.20
2023-03-24T06:23:18.461Z,6.40
2023-03-24T06:24:18.450Z,5.90
2023-03-24T06:25:18.418Z,6.10
2023-03-24T06:26:18.383Z,6.70
2023-03-24T06:27:18.393Z,5.80
2023-03-24T06:28:18.377Z,5.80
2023-03-24T06:29:18.458Z,5.60
2023-03-24T06:30:18.372Z,7.20
2023-03-24T06:31:18.482Z,5.70
2023-03-24T06:32:18.396Z,5.50
2023-03-24T06:33:18.368Z,7.90
2023-03-24T06:34:18.481Z,6.70
2023-03-24T06:35:18.289Z,4.80
2023-03-24T06:36:18.268Z,4.80
2023-03-24T06:37:18.292Z,5.40
2023-03-24T06:38:18.290Z,6.20
2023-03-24T06:39:18.279Z,6.10
2023-03-24T06:40:18.283Z,5.20
2023-03-24T06:41:18.237Z,5.10
2023-03-24T06:42:18.223Z,4.10
2023-03-24T06:43:18.228Z,5.20
2023-03-24T06:44:18.231Z,4.20
2023-03-24T06:45:18.205Z,6.60
2023-03-24T06:46:18.278Z,5.30
2023-03-24T06:47:18.229Z,5.30
2023-03-24T06:48:18.159Z,4.90
2023-03-24T06:49:18.203Z,4.50
2023-03-24T06:50:18.199Z,4.40
2023-03-24T06:51:18.165Z,4.40
2023-03-24T06:52:18.133Z,5.00
2023-03-24T06:53:18.119Z,5.30
2023-03-24T06:54:18.142Z,5.30
2023-03-24T06:55:18.110Z,5.30
2023-03-24T06:56:18.141Z,6.30
2023-03-24T06:57:18.057Z,4.90
2023-03-24T06:58:18.087Z,4.40
2023-03-24T06:59:18.071Z,4.30
2023-03-24T07:00:18.028Z,4.40
2023-03-24T07:01:18.098Z,4.10
2023-03-24T07:02:18.033Z,4.60
2023-03-24T07:03:18.079Z,4.20
2023-03-24T07:04:18.065Z,4.90
2023-03-24T07:05:18.004Z,3.50
2023-03-24T07:06:17.996Z,5.00
2023-03-24T07:07:44.824Z,4.60
2023-03-24T07:08:36.487Z,3.70
2023-03-24T07:09:19.958Z,3.20
2023-03-24T07:10:17.938Z,3.60
2023-03-24T07:11:17.938Z,3.80
2023-03-24T07:12:17.967Z,3.30
2023-03-24T07:13:17.907Z,5.80
2023-03-24T07:14:17.910Z,3.10
2023-03-24T07:15:17.912Z,3.40
2023-03-24T07:16:17.910Z,2.60
2023-03-24T07:17:17.958Z,3.70
2023-03-24T07:18:17.917Z,3.20
2023-03-24T07:19:17.852Z,3.70
2023-03-24T07:20:17.835Z,3.00
2023-03-24T07:21:17.829Z,3.00
2023-03-24T07:22:17.848Z,3.10
2023-03-24T07:23:17.822Z,2.70
2023-03-24T07:24:17.800Z,3.20
2023-03-24T07:25:17.811Z,3.20
2023-03-24T07:26:17.786Z,2.60
2023-03-24T07:27:17.755Z,3.20
2023-03-24T07:28:17.799Z,3.10
2023-03-24T07:29:17.756Z,3.20
2023-03-24T07:30:20.570Z,3.00
2023-03-24T07:31:17.792Z,3.10
2023-03-24T07:32:17.724Z,3.70
2023-03-24T07:33:17.785Z,3.00
2023-03-24T07:34:17.686Z,2.40
2023-03-24T07:35:17.710Z,2.50
2023-03-24T07:36:17.730Z,2.50
2023-03-24T07:37:17.712Z,2.60
2023-03-24T07:38:17.687Z,3.60
2023-03-24T07:39:17.634Z,3.10
2023-03-24T07:40:17.674Z,3.10
2023-03-24T07:41:17.632Z,2.40
2023-03-24T07:42:17.677Z,2.90
2023-03-24T07:43:17.666Z,3.10
2023-03-24T07:44:17.593Z,2.80
2023-03-24T07:45:17.613Z,2.40
2023-03-24T07:46:17.686Z,2.30
2023-03-24T07:47:18.589Z,3.30
2023-03-24T07:48:17.581Z,2.20
2023-03-24T07:49:19.928Z,2.30
2023-03-24T07:50:18.557Z,2.40
2023-03-24T07:51:17.528Z,3.60
2023-03-24T07:52:17.581Z,2.40
2023-03-24T07:53:17.532Z,1.80
2023-03-24T07:54:17.544Z,3.10
2023-03-24T07:55:17.550Z,2.50
2023-03-24T07:56:17.532Z,2.10
2023-03-24T07:57:17.587Z,2.00
2023-03-24T07:58:17.890Z,2.00
2023-03-24T07:59:17.518Z,2.20
2023-03-24T08:00:17.437Z,2.00
2023-03-24T08:02:44.888Z,3.40
2023-03-24T08:03:44.887Z,1.80
2023-03-24T08:04:44.781Z,1.80
2023-03-24T08:05:44.763Z,2.10
2023-03-24T08:06:44.718Z,2.50
2023-03-24T08:07:44.787Z,3.70
2023-03-24T08:08:44.736Z,2.90
2023-03-24T08:09:44.705Z,2.10
2023-03-24T08:10:44.680Z,3.10
2023-03-24T08:11:44.659Z,1.90
2023-03-24T08:12:45.790Z,2.20
2023-03-24T08:13:45.799Z,2.40
2023-03-24T08:14:45.787Z,2.40
2023-03-24T08:15:46.011Z,1.90
2023-03-24T08:16:45.757Z,7.30
2023-03-24T08:17:45.741Z,4.50
2023-03-24T08:18:45.712Z,4.60
2023-03-24T08:19:58.506Z,3.80
2023-03-24T08:20:47.743Z,3.60
2023-03-24T08:21:45.687Z,3.60
2023-03-24T08:22:45.664Z,1.50
2023-03-24T08:23:45.676Z,3.40
2023-03-24T08:24:45.649Z,2.30
2023-03-24T08:25:45.977Z,2.60
2023-03-24T08:26:45.653Z,2.60
2023-03-24T08:27:45.652Z,3.50
2023-03-24T08:28:45.592Z,2.90
2023-03-24T08:29:45.626Z,2.70
2023-03-24T08:30:45.688Z,2.00
2023-03-24T08:31:45.637Z,2.90
2023-03-24T08:32:45.609Z,3.10
2023-03-24T08:33:45.579Z,3.00
2023-03-24T08:34:45.544Z,2.40
2023-03-24T08:35:45.786Z,2.00
2023-03-24T08:36:45.542Z,2.70
2023-03-24T08:37:45.509Z,2.10
2023-03-24T08:38:45.535Z,2.50
2023-03-24T08:39:45.512Z,1.40
2023-03-24T08:40:45.516Z,2.10
2023-03-24T08:41:45.506Z,2.20
2023-03-24T08:42:45.539Z,1.60
2023-03-24T08:43:45.486Z,1.70
2023-03-24T08:44:45.449Z,1.50
2023-03-24T08:45:45.556Z,1.70
2023-03-24T08:46:45.481Z,2.70
2023-03-24T08:47:45.437Z,1.10
2023-03-24T08:48:45.415Z,1.40
2023-03-24T08:49:45.441Z,1.40
2023-03-24T08:50:45.397Z,1.00
2023-03-24T08:51:45.551Z,1.00
2023-03-24T08:52:45.413Z,0.90
2023-03-24T08:53:45.373Z,0.60
2023-03-24T08:54:45.379Z,1.50
2023-03-24T08:55:45.685Z,1.50
2023-03-24T08:56:45.358Z,1.60
2023-03-24T08:57:45.303Z,1.10
2023-03-24T08:58:45.342Z,1.90
2023-03-24T08:59:45.313Z,1.40
2023-03-24T09:00:45.342Z,2.90
2023-03-24T09:01:45.309Z,2.10
2023-03-24T09:02:45.313Z,0.70
2023-03-24T09:03:45.279Z,3.40
2023-03-24T09:04:45.265Z,2.00
2023-03-24T09:05:45.288Z,1.20
2023-03-24T09:06:45.249Z,0.90
2023-03-24T09:07:45.215Z,1.70
2023-03-24T09:08:45.224Z,2.60
2023-03-24T09:09:45.201Z,1.30
2023-03-24T09:10:45.204Z,2.90
2023-03-24T09:11:45.235Z,1.50
2023-03-24T09:12:45.184Z,1.80
2023-03-24T09:13:45.153Z,0.90
2023-03-24T09:14:45.151Z,2.50
2023-03-24T09:15:45.293Z,1.60
2023-03-24T09:16:46.153Z,1.70
2023-03-24T09:17:45.172Z,2.30
2023-03-24T09:18:45.177Z,2.50
2023-03-24T09:19:45.150Z,1.20
2023-03-24T09:20:45.124Z,1.90
2023-03-24T09:21:45.090Z,1.30
2023-03-24T09:22:45.139Z,2.00
2023-03-24T09:23:45.109Z,2.00
2023-03-24T09:24:45.061Z,1.60
2023-03-24T09:25:45.096Z,1.40
2023-03-24T09:26:45.070Z,2.10
2023-03-24T09:27:45.107Z,2.30
2023-03-24T09:28:45.087Z,2.60
2023-03-24T09:29:48.135Z,2.60
2023-03-24T09:30:45.077Z,3.20
2023-03-24T09:31:45.088Z,2.40
2023-03-24T09:32:45.090Z,1.90
2023-03-24T09:33:44.964Z,1.90
2023-03-24T09:34:44.981Z,3.40
2023-03-24T09:35:45.037Z,1.80
2023-03-24T09:36:45.046Z,1.40
2023-03-24T09:37:45.035Z,1.40
2023-03-24T09:38:44.935Z,2.10
2023-03-24T09:39:44.911Z,2.30
2023-03-24T09:40:44.875Z,2.90
2023-03-24T09:41:44.927Z,2.40
2023-03-24T09:42:46.599Z,2.70
2023-03-24T09:43:44.914Z,2.50
2023-03-24T09:44:44.869Z,4.00
2023-03-24T09:45:44.864Z,3.30
2023-03-24T09:46:44.877Z,1.70
2023-03-24T09:47:44.841Z,1.80
2023-03-24T09:48:44.872Z,4.50
2023-03-24T09:49:44.829Z,2.80
2023-03-24T09:50:44.815Z,2.30
2023-03-24T09:51:44.817Z,3.00
2023-03-24T09:52:44.887Z,2.40
2023-03-24T09:53:44.784Z,2.50
2023-03-24T09:54:44.836Z,3.10
2023-03-24T09:55:44.770Z,2.80
2023-03-24T09:56:44.780Z,2.70
2023-03-24T09:57:44.748Z,3.00
2023-03-24T09:58:44.734Z,3.50
2023-03-24T09:59:44.725Z,3.20
2023-03-24T10:00:44.735Z,3.20
2023-03-24T10:01:44.722Z,4.60
2023-03-24T10:02:44.792Z,4.00
2023-03-24T10:03:44.828Z,3.20
2023-03-24T10:04:44.740Z,2.80
2023-03-24T10:05:44.632Z,3.80
2023-03-24T10:06:44.729Z,1.60
2023-03-24T10:07:44.640Z,2.50
2023-03-24T10:08:44.664Z,2.40
2023-03-24T10:09:44.642Z,3.60
2023-03-24T10:10:44.609Z,2.40
2023-03-24T10:11:44.641Z,1.80
2023-03-24T10:12:44.584Z,2.70
2023-03-24T10:13:44.592Z,2.10
2023-03-24T10:14:44.622Z,4.90
2023-03-24T10:15:44.580Z,3.90
2023-03-24T10:16:44.562Z,3.90
2023-03-24T10:17:44.667Z,3.30
2023-03-24T10:18:44.545Z,3.10
2023-03-24T10:19:44.531Z,2.70
2023-03-24T10:20:44.563Z,2.60
2023-03-24T10:21:44.565Z,4.00
2023-03-24T10:22:44.521Z,4.80
2023-03-24T10:23:44.511Z,4.10
2023-03-24T10:24:44.500Z,4.70
2023-03-24T10:25:44.488Z,4.10
2023-03-24T10:26:44.486Z,3.30
2023-03-24T10:27:44.472Z,4.70
2023-03-24T10:28:44.445Z,3.50
2023-03-24T10:29:44.424Z,4.60
2023-03-24T10:30:45.328Z,4.10
2023-03-24T10:31:45.568Z,4.40
2023-03-24T10:32:44.428Z,5.00
2023-03-24T10:33:44.400Z,6.10
2023-03-24T10:34:44.365Z,5.10
2023-03-24T10:35:44.382Z,3.90
2023-03-24T10:36:44.390Z,5.20
2023-03-24T10:37:44.360Z,5.90
2023-03-24T10:38:44.370Z,3.40
2023-03-24T10:39:45.269Z,2.80
2023-03-24T10:40:45.389Z,8.20
2023-03-24T10:41:44.313Z,4.50
2023-03-24T10:42:44.310Z,4.40
2023-03-24T10:43:44.288Z,5.80
2023-03-24T10:44:44.297Z,3.60
2023-03-24T10:45:44.368Z,5.90
2023-03-24T10:46:44.277Z,3.80
2023-03-24T10:47:44.323Z,3.20
2023-03-24T10:48:44.282Z,11.80
2023-03-24T10:49:44.278Z,6.10
2023-03-24T10:50:44.278Z,21.30
2023-03-24T10:51:44.263Z,15.50
2023-03-24T10:52:44.203Z,8.80
2023-03-24T10:53:44.221Z,20.40
2023-03-24T10:54:44.250Z,24.30
2023-03-24T10:55:44.175Z,6.60
2023-03-24T10:56:44.189Z,8.60
2023-03-24T10:57:44.192Z,13.10
2023-03-24T10:58:44.181Z,20.00
2023-03-24T10:59:44.197Z,8.10
2023-03-24T11:00:44.134Z,6.10
2023-03-24T11:01:44.187Z,5.50
2023-03-24T11:02:44.242Z,6.40
2023-03-24T11:03:44.146Z,5.70
2023-03-24T11:04:44.127Z,8.00
2023-03-24T11:05:44.075Z,3.90
2023-03-24T11:06:44.090Z,4.10
2023-03-24T11:07:44.059Z,5.30
2023-03-24T11:08:44.125Z,4.90
2023-03-24T11:09:44.032Z,4.70
2023-03-24T11:10:44.060Z,6.80
2023-03-24T11:11:44.031Z,3.60
2023-03-24T11:12:44.025Z,3.70
2023-03-24T11:13:44.053Z,4.20
2023-03-24T11:14:43.996Z,4.70
2023-03-24T11:15:43.996Z,3.50
2023-03-24T11:16:44.001Z,4.70
2023-03-24T11:17:44.050Z,3.60
2023-03-24T11:18:43.936Z,3.30
2023-03-24T11:19:43.961Z,3.70
2023-03-24T11:20:43.948Z,4.90
2023-03-24T11:21:43.986Z,6.20
2023-03-24T11:22:43.963Z,4.10
2023-03-24T11:23:43.986Z,5.90
2023-03-24T11:24:43.933Z,6.10
2023-03-24T11:25:43.967Z,3.30
2023-03-24T11:26:43.931Z,3.00
2023-03-24T11:27:43.923Z,3.10
2023-03-24T11:28:43.881Z,3.70
2023-03-24T11:29:43.868Z,3.70
2023-03-24T11:30:45.725Z,5.20
2023-03-24T11:31:44.942Z,3.70
2023-03-24T11:32:43.875Z,5.30
2023-03-24T11:33:43.818Z,3.80
2023-03-24T11:34:43.769Z,4.00
2023-03-24T11:35:44.957Z,4.20
2023-03-24T11:36:46.886Z,4.00
2023-03-24T11:37:44.758Z,4.20
2023-03-24T11:38:43.774Z,3.90
2023-03-24T11:39:43.728Z,4.10
2023-03-24T11:40:43.727Z,3.30
2023-03-24T11:41:43.720Z,3.80
2023-03-24T11:42:45.408Z,5.80
2023-03-24T11:43:44.717Z,2.80
2023-03-24T11:44:43.758Z,5.30
2023-03-24T11:45:43.691Z,4.90
2023-03-24T11:46:43.708Z,6.00
2023-03-24T11:47:43.723Z,4.20
2023-03-24T11:48:43.661Z,3.50
2023-03-24T11:49:43.669Z,2.60
2023-03-24T11:50:43.645Z,4.60
2023-03-24T11:51:43.637Z,3.50
2023-03-24T11:52:43.631Z,4.90
2023-03-24T11:53:43.605Z,3.60
2023-03-24T11:54:43.595Z,3.20
2023-03-24T11:55:43.608Z,2.60
2023-03-24T11:56:43.656Z,2.90
2023-03-24T11:57:43.622Z,3.70
2023-03-24T11:58:43.590Z,4.20
2023-03-24T11:59:43.571Z,3.20
2023-03-24T12:00:43.533Z,2.90
2023-03-24T12:01:43.534Z,3.70
2023-03-24T12:02:43.566Z,3.30
2023-03-24T12:03:43.617Z,2.60
2023-03-24T12:04:43.525Z,3.10
2023-03-24T12:05:43.538Z,2.90
2023-03-24T12:06:43.493Z,4.50
2023-03-24T12:07:43.465Z,1.70
2023-03-24T12:08:43.503Z,3.00
2023-03-24T12:09:43.432Z,2.40
2023-03-24T12:10:43.468Z,2.90
2023-03-24T12:11:43.433Z,2.80
2023-03-24T12:12:43.411Z,3.20
2023-03-24T12:13:43.412Z,1.50
2023-03-24T12:14:43.508Z,3.20
2023-03-24T12:15:43.423Z,3.10
2023-03-24T12:16:43.435Z,4.20
2023-03-24T12:17:43.553Z,4.40
2023-03-24T12:18:43.491Z,4.70
2023-03-24T12:19:43.331Z,2.40
2023-03-24T12:20:43.368Z,3.10
2023-03-24T12:21:43.422Z,2.20
2023-03-24T12:22:43.350Z,3.70
2023-03-24T12:23:43.352Z,3.60
2023-03-24T12:24:43.353Z,3.30
2023-03-24T12:25:43.279Z,2.40
2023-03-24T12:26:43.278Z,2.90
2023-03-24T12:27:43.304Z,5.10
2023-03-24T12:28:43.281Z,4.40
2023-03-24T12:29:43.295Z,3.40
2023-03-24T12:30:43.261Z,2.00
2023-03-24T12:31:43.322Z,2.70
2023-03-24T12:32:43.296Z,3.00
2023-03-24T12:33:43.211Z,3.80
2023-03-24T12:34:43.262Z,4.50
2023-03-24T12:35:43.247Z,4.10
2023-03-24T12:36:43.210Z,2.70
2023-03-24T12:37:43.172Z,2.50
2023-03-24T12:38:43.141Z,6.60
2023-03-24T12:39:43.210Z,1.40
2023-03-24T12:40:43.153Z,3.70
2023-03-24T12:41:43.163Z,3.30
2023-03-24T12:42:43.170Z,4.80
2023-03-24T12:43:43.096Z,4.20
2023-03-24T12:44:43.145Z,3.70
2023-03-24T12:45:43.130Z,3.30
2023-03-24T12:47:44.130Z,3.10
2023-03-24T12:48:43.065Z,2.20
2023-03-24T12:49:43.053Z,3.50
2023-03-24T12:50:43.111Z,4.10
2023-03-24T12:51:43.136Z,5.70
2023-03-24T12:52:43.816Z,4.00
2023-03-24T12:53:42.990Z,3.40
2023-03-24T12:54:43.015Z,4.50
2023-03-24T12:55:42.990Z,2.90
2023-03-24T12:56:43.030Z,3.50
2023-03-24T12:57:42.990Z,2.80
2023-03-24T12:58:43.061Z,3.00
2023-03-24T12:59:42.975Z,4.00
2023-03-24T13:00:43.014Z,3.40
2023-03-24T13:01:42.940Z,2.70
2023-03-24T13:02:43.948Z,3.10
2023-03-24T13:03:43.982Z,2.30
2023-03-24T13:04:42.956Z,4.70
2023-03-24T13:05:42.880Z,3.20
2023-03-24T13:06:42.881Z,2.90
2023-03-24T13:07:42.888Z,4.50
2023-03-24T13:08:42.857Z,3.20
2023-03-24T13:09:42.880Z,5.10
2023-03-24T13:10:42.877Z,3.60
2023-03-24T13:11:42.831Z,5.60
2023-03-24T13:12:42.835Z,7.20
2023-03-24T13:13:42.823Z,5.60
2023-03-24T13:14:42.786Z,4.70
2023-03-24T13:15:42.824Z,4.90
2023-03-24T13:16:42.809Z,4.70
2023-03-24T13:17:44.916Z,8.20
2023-03-24T13:18:42.752Z,8.10
2023-03-24T13:19:42.753Z,5.60
2023-03-24T13:20:42.786Z,5.60